Terminal Aerodrome Forecast
Issued by NWS Kansas City/Pleasant Hill, MO

Home | Current Version | Previous Version | Text Only | Print | Product List | Glossary On
Versions: 1 2 3 4 5 6 7 8 9 10 11 12 13 14 15 16 17 18 19 20 21 22 23 24
000
FTUS43 KEAX 231200 AAA
TAFMCI
TAF AMD
KMCI 231225Z 2312/2412 16011KT P6SM VCSH OVC009
     FM232000 31008KT 4SM BR VCSH OVC008
     FM240000 33015G25KT 6SM -RA BR OVC008
     FM240700 33020G35KT 6SM -SHRA OVC015=

USA.gov is the U.S. government's official web portal to all federal, state and local government web resources and services.